createdAt,value
2019-03-12T00:02:06.173Z,5.20
2019-03-12T00:04:39.035Z,5.10
2019-03-12T00:07:11.334Z,5.20
2019-03-12T00:09:43.740Z,5.10
2019-03-12T00:12:16.315Z,5.10
2019-03-12T00:14:48.885Z,5.10
2019-03-12T00:17:21.374Z,5.00
2019-03-12T00:19:53.962Z,4.90
2019-03-12T00:22:26.517Z,5.00
2019-03-12T00:24:59.005Z,5.00
2019-03-12T00:27:31.713Z,4.90
2019-03-12T00:30:05.516Z,4.90
2019-03-12T00:32:38.070Z,4.80
2019-03-12T00:35:11.150Z,4.80
2019-03-12T00:37:43.543Z,4.70
2019-03-12T00:40:16.708Z,4.70
2019-03-12T00:42:48.949Z,4.70
2019-03-12T00:45:21.703Z,4.70
2019-03-12T00:47:54.061Z,4.70
2019-03-12T00:50:26.628Z,4.80
2019-03-12T00:52:59.160Z,4.80
2019-03-12T00:55:31.508Z,4.70
2019-03-12T00:58:04.033Z,4.80
2019-03-12T01:00:36.538Z,4.70
2019-03-12T01:03:10.324Z,4.60
2019-03-12T01:05:42.903Z,4.60
2019-03-12T01:08:15.640Z,4.50
2019-03-12T01:10:56.816Z,4.50
2019-03-12T01:13:30.097Z,4.40
2019-03-12T01:16:03.771Z,4.50
2019-03-12T01:18:36.095Z,4.50
2019-03-12T01:21:08.511Z,4.50
2019-03-12T01:23:41.147Z,4.50
2019-03-12T01:26:13.508Z,4.60
2019-03-12T01:28:45.987Z,4.60
2019-03-12T01:31:18.667Z,4.60
2019-03-12T01:33:51.146Z,4.60
2019-03-12T01:36:24.122Z,4.60
2019-03-12T01:38:56.745Z,4.60
2019-03-12T01:41:29.279Z,4.50
2019-03-12T01:44:01.531Z,4.50
2019-03-12T01:46:34.098Z,4.50
2019-03-12T01:49:06.600Z,4.50
2019-03-12T01:51:39.136Z,4.40
2019-03-12T01:54:11.903Z,4.40
2019-03-12T01:56:44.330Z,4.40
2019-03-12T01:59:16.863Z,4.30
2019-03-12T02:01:49.507Z,4.40
2019-03-12T02:04:22.271Z,4.30
2019-03-12T02:06:57.343Z,4.30
2019-03-12T02:09:30.755Z,4.30
2019-03-12T02:12:03.160Z,4.20
2019-03-12T02:14:35.960Z,4.20
2019-03-12T02:17:08.390Z,4.30
2019-03-12T02:19:40.752Z,4.30
2019-03-12T02:22:13.356Z,4.30
2019-03-12T02:24:52.797Z,4.40
2019-03-12T02:27:20.322Z,4.40
2019-03-12T02:29:53.065Z,4.40
2019-03-12T02:32:25.437Z,4.40
2019-03-12T02:34:58.045Z,4.40
2019-03-12T02:37:30.410Z,4.30
2019-03-12T02:40:02.996Z,4.30
2019-03-12T02:42:35.275Z,4.30
2019-03-12T02:45:09.483Z,4.40
2019-03-12T02:47:42.414Z,4.30
2019-03-12T02:50:14.963Z,4.30
2019-03-12T02:52:47.335Z,4.30
2019-03-12T02:55:19.781Z,4.40
2019-03-12T02:57:52.064Z,4.50
2019-03-12T03:00:25.108Z,4.50
2019-03-12T03:02:57.727Z,4.50
2019-03-12T03:05:30.879Z,4.50
2019-03-12T03:08:06.123Z,4.50
2019-03-12T03:10:38.682Z,4.50
2019-03-12T03:13:11.206Z,4.60
2019-03-12T03:15:45.353Z,4.60
2019-03-12T03:18:17.930Z,4.70
2019-03-12T03:20:50.473Z,4.70
2019-03-12T03:23:22.788Z,4.70
2019-03-12T03:25:55.193Z,4.70
2019-03-12T03:28:27.507Z,4.70
2019-03-12T03:30:59.998Z,4.80
2019-03-12T03:33:32.794Z,4.80
2019-03-12T03:36:05.240Z,4.80
2019-03-12T03:38:37.698Z,4.70
2019-03-12T03:41:10.198Z,4.80
2019-03-12T03:43:42.479Z,4.70
2019-03-12T03:46:14.958Z,4.70
2019-03-12T03:48:47.328Z,4.70
2019-03-12T03:51:19.761Z,4.70
2019-03-12T03:53:52.081Z,4.70
2019-03-12T03:56:26.519Z,4.70
2019-03-12T03:58:58.934Z,4.80
2019-03-12T04:01:31.467Z,4.70
2019-03-12T04:04:03.730Z,4.70
2019-03-12T04:06:36.259Z,4.60
2019-03-12T04:09:09.064Z,4.70
2019-03-12T04:11:41.401Z,4.70
2019-03-12T04:14:13.603Z,4.70
2019-03-12T04:16:45.932Z,4.70
2019-03-12T04:19:18.318Z,4.70
2019-03-12T04:21:50.827Z,4.70
2019-03-12T04:24:23.206Z,4.60
2019-03-12T04:26:55.962Z,4.60
2019-03-12T04:29:28.299Z,4.60
2019-03-12T04:32:00.826Z,4.60
2019-03-12T04:34:42.623Z,4.60
2019-03-12T04:37:15.118Z,4.50
2019-03-12T04:39:47.480Z,4.50
2019-03-12T04:42:19.733Z,4.50
2019-03-12T04:44:52.206Z,4.50
2019-03-12T04:47:24.438Z,4.40
2019-03-12T04:49:56.792Z,4.40
2019-03-12T04:52:29.338Z,4.30
2019-03-12T04:55:02.029Z,4.30
2019-03-12T04:57:34.274Z,4.30
2019-03-12T05:00:08.138Z,4.30
2019-03-12T05:02:40.705Z,4.40
2019-03-12T05:05:13.158Z,4.40
2019-03-12T05:07:45.784Z,4.50
2019-03-12T05:10:18.392Z,4.50
2019-03-12T05:12:50.753Z,4.50
2019-03-12T05:15:23.173Z,4.40
2019-03-12T05:17:55.671Z,4.40
2019-03-12T05:20:27.696Z,4.40
2019-03-12T05:22:59.979Z,4.40
2019-03-12T05:25:32.327Z,4.50
2019-03-12T05:28:04.653Z,4.60
2019-03-12T05:30:36.907Z,4.70
2019-03-12T05:33:09.502Z,5.00
2019-03-12T05:35:41.695Z,5.20
2019-03-12T05:38:14.426Z,5.50
2019-03-12T05:40:46.988Z,5.70
2019-03-12T05:43:19.484Z,5.90
2019-03-12T05:45:51.793Z,6.30
2019-03-12T05:48:24.216Z,6.60
2019-03-12T05:50:56.640Z,6.70
2019-03-12T05:53:46.755Z,7.10
2019-03-12T05:56:19.143Z,7.40
2019-03-12T05:58:51.869Z,7.80
2019-03-12T06:01:24.155Z,8.00
2019-03-12T06:03:56.652Z,8.20
2019-03-12T06:06:29.426Z,8.50
2019-03-12T06:09:03.765Z,8.80
2019-03-12T06:11:37.235Z,9.00
2019-03-12T06:14:09.774Z,9.20
2019-03-12T06:16:42.124Z,9.30
2019-03-12T06:19:14.483Z,9.60
2019-03-12T06:21:46.997Z,9.80
2019-03-12T06:24:21.984Z,9.60
2019-03-12T06:26:54.724Z,9.40
2019-03-12T06:29:27.505Z,9.60
2019-03-12T06:32:34.016Z,9.20
2019-03-12T06:35:37.503Z,8.80
2019-03-12T06:38:27.656Z,8.60
2019-03-12T06:41:07.657Z,8.50
2019-03-12T06:43:58.885Z,8.40
2019-03-12T06:46:59.340Z,8.40
2019-03-12T06:49:43.052Z,8.20
2019-03-12T06:52:25.948Z,7.90
2019-03-12T06:55:03.955Z,8.20
2019-03-12T06:57:51.693Z,8.50
2019-03-12T07:00:42.498Z,8.90
2019-03-12T07:03:33.907Z,9.20
2019-03-12T07:06:31.077Z,9.80
2019-03-12T07:09:21.006Z,10.10
2019-03-12T07:12:03.596Z,10.20
2019-03-12T07:14:54.739Z,9.90
2019-03-12T07:17:59.563Z,9.70
2019-03-12T07:20:49.242Z,9.50
2019-03-12T07:23:26.815Z,9.20
2019-03-12T07:26:20.945Z,8.90
2019-03-12T07:29:17.413Z,9.00
2019-03-12T07:32:07.848Z,9.10
2019-03-12T07:35:00.345Z,9.40
2019-03-12T07:37:57.517Z,10.10
2019-03-12T07:40:39.511Z,10.90
2019-03-12T07:43:36.678Z,11.60
2019-03-12T07:46:30.472Z,11.90
2019-03-12T07:49:20.381Z,11.30
2019-03-12T07:52:34.886Z,11.70
2019-03-12T07:55:32.582Z,12.80
2019-03-12T07:58:36.301Z,14.00
2019-03-12T08:01:36.627Z,14.90
2019-03-12T08:04:33.884Z,16.00
2019-03-12T08:07:24.070Z,15.50
2019-03-12T08:10:27.321Z,15.70
2019-03-12T08:13:27.924Z,16.60
2019-03-12T08:16:24.962Z,17.30
2019-03-12T08:19:25.185Z,17.40
2019-03-12T08:22:19.092Z,16.80
2019-03-12T08:25:07.631Z,17.10
2019-03-12T08:28:01.724Z,17.90
2019-03-12T08:30:55.801Z,17.50
2019-03-12T08:33:51.199Z,16.40
2019-03-12T08:36:41.610Z,16.70
2019-03-12T08:39:51.349Z,16.50
2019-03-12T08:42:34.480Z,17.00
2019-03-12T08:45:27.198Z,17.80
2019-03-12T08:48:17.447Z,16.70
2019-03-12T08:51:08.611Z,15.50
2019-03-12T08:54:02.984Z,14.40
2019-03-12T08:57:12.490Z,13.60
2019-03-12T08:59:52.015Z,13.00
2019-03-12T09:02:45.811Z,12.20
2019-03-12T09:05:34.325Z,12.20
2019-03-12T09:08:37.917Z,12.30
2019-03-12T09:11:27.958Z,12.20
2019-03-12T09:14:43.647Z,11.60
2019-03-12T09:17:26.488Z,11.30
2019-03-12T09:20:26.453Z,11.70
2019-03-12T09:23:30.024Z,11.70
2019-03-12T09:26:30.659Z,11.20
2019-03-12T09:29:20.800Z,10.90
2019-03-12T09:32:27.316Z,11.10
2019-03-12T09:35:21.585Z,11.10
2019-03-12T09:38:05.206Z,12.60
2019-03-12T09:40:56.523Z,13.50
2019-03-12T09:43:48.230Z,13.20
2019-03-12T09:46:48.406Z,12.60
2019-03-12T09:49:42.921Z,12.00
2019-03-12T09:52:37.038Z,11.20
2019-03-12T09:55:28.495Z,11.40
2019-03-12T09:58:18.340Z,11.30
2019-03-12T10:01:10.388Z,11.30
2019-03-12T10:03:58.378Z,10.90
2019-03-12T10:06:48.480Z,10.40
2019-03-12T10:09:36.217Z,10.50
2019-03-12T10:12:21.771Z,11.50
2019-03-12T10:15:06.969Z,12.50
2019-03-12T10:17:58.266Z,12.20
2019-03-12T10:20:52.668Z,12.30
2019-03-12T10:23:47.140Z,12.30
2019-03-12T10:26:37.083Z,11.60
2019-03-12T10:29:27.125Z,11.20
2019-03-12T10:32:13.612Z,11.20
2019-03-12T10:35:04.871Z,11.20
2019-03-12T10:37:56.062Z,11.20
2019-03-12T10:40:53.511Z,11.80
2019-03-12T10:43:43.528Z,11.90
2019-03-12T10:46:33.477Z,12.00
2019-03-12T10:49:06.049Z,12.10
2019-03-12T10:51:38.414Z,12.00
2019-03-12T10:54:10.990Z,11.60
2019-03-12T10:56:43.547Z,11.40
2019-03-12T10:59:16.165Z,11.10
2019-03-12T11:01:48.542Z,11.00
2019-03-12T11:04:21.014Z,11.80
2019-03-12T11:06:53.556Z,12.90
2019-03-12T11:09:26.228Z,12.80
2019-03-12T11:11:58.888Z,12.10
2019-03-12T11:14:31.540Z,11.70
2019-03-12T11:17:04.244Z,11.60
2019-03-12T11:19:36.709Z,11.40
2019-03-12T11:22:10.071Z,11.50
2019-03-12T11:24:42.388Z,11.20
2019-03-12T11:27:15.610Z,11.40
2019-03-12T11:29:47.957Z,12.10
2019-03-12T11:32:20.564Z,12.70
2019-03-12T11:34:52.940Z,13.00
2019-03-12T11:37:25.422Z,12.60
2019-03-12T11:39:57.807Z,12.60
2019-03-12T11:42:30.358Z,12.80
2019-03-12T11:45:02.693Z,12.90
2019-03-12T11:47:35.841Z,13.30
2019-03-12T11:50:10.992Z,13.40
2019-03-12T11:52:52.423Z,13.70
2019-03-12T11:55:18.178Z,13.90
2019-03-12T11:57:51.106Z,13.50
2019-03-12T12:00:28.157Z,13.00
2019-03-12T12:03:01.267Z,12.70
2019-03-12T12:05:33.779Z,12.50
2019-03-12T12:08:06.475Z,12.40
2019-03-12T12:10:39.183Z,12.00
2019-03-12T12:13:13.770Z,11.70
2019-03-12T12:15:46.249Z,11.70
2019-03-12T12:18:18.864Z,12.00
2019-03-12T12:20:51.234Z,12.40
2019-03-12T12:23:23.933Z,12.80
2019-03-12T12:25:56.407Z,13.00
2019-03-12T12:28:28.798Z,13.30
2019-03-12T12:31:01.334Z,13.20
2019-03-12T12:33:34.323Z,13.20
2019-03-12T12:36:07.095Z,13.40
2019-03-12T12:38:39.571Z,13.30
2019-03-12T12:41:12.021Z,12.70
2019-03-12T12:43:44.733Z,12.50
2019-03-12T12:46:17.149Z,12.20
2019-03-12T12:48:49.589Z,11.90
2019-03-12T12:51:22.299Z,11.90
2019-03-12T12:53:54.677Z,11.80
2019-03-12T12:56:27.177Z,11.70
2019-03-12T12:58:59.491Z,11.50
2019-03-12T13:01:32.214Z,11.40
2019-03-12T13:04:04.563Z,11.30
2019-03-12T13:06:37.207Z,11.20
2019-03-12T13:09:10.050Z,11.10
2019-03-12T13:11:42.629Z,11.20
2019-03-12T13:14:15.143Z,11.20
2019-03-12T13:16:47.563Z,11.30
2019-03-12T13:19:20.132Z,11.30
2019-03-12T13:21:52.765Z,11.30
2019-03-12T13:24:25.450Z,11.50
2019-03-12T13:26:58.101Z,11.40
2019-03-12T13:29:30.381Z,11.50
2019-03-12T13:32:12.928Z,11.50
2019-03-12T13:34:37.340Z,11.40
2019-03-12T13:37:09.761Z,11.50
2019-03-12T13:39:42.195Z,11.50
2019-03-12T13:42:14.698Z,11.60
2019-03-12T13:44:47.412Z,11.40
2019-03-12T13:47:20.065Z,11.40
2019-03-12T13:49:52.465Z,11.40
2019-03-12T13:52:24.863Z,11.20
2019-03-12T13:54:57.571Z,11.10
2019-03-12T13:57:30.055Z,11.10
2019-03-12T14:00:02.355Z,11.20
2019-03-12T14:02:34.721Z,11.20
2019-03-12T14:05:07.620Z,11.10
2019-03-12T14:07:39.962Z,11.10
2019-03-12T14:10:15.998Z,11.00
2019-03-12T14:12:48.851Z,10.90
2019-03-12T14:15:25.813Z,10.70
2019-03-12T14:17:58.278Z,10.70
2019-03-12T14:20:43.309Z,10.80
2019-03-12T14:23:22.606Z,10.90
2019-03-12T14:25:55.477Z,11.10
2019-03-12T14:28:28.166Z,11.10
2019-03-12T14:31:00.721Z,11.10
2019-03-12T14:33:33.270Z,11.00
2019-03-12T14:36:05.795Z,11.00
2019-03-12T14:38:38.138Z,10.90
2019-03-12T14:41:10.715Z,10.90
2019-03-12T14:43:43.221Z,10.90
2019-03-12T14:46:15.893Z,10.90
2019-03-12T14:48:54.391Z,10.90
2019-03-12T14:52:33.850Z,10.90
2019-03-12T14:55:07.218Z,11.00
2019-03-12T14:57:39.698Z,10.80
2019-03-12T15:00:21.868Z,10.80
2019-03-12T15:02:54.928Z,10.60
2019-03-12T15:05:38.234Z,10.70
2019-03-12T15:08:13.694Z,10.70
2019-03-12T15:10:46.049Z,10.70
2019-03-12T15:13:18.689Z,10.60
2019-03-12T15:15:51.100Z,10.60
2019-03-12T15:18:23.474Z,10.70
2019-03-12T15:20:55.909Z,10.60
2019-03-12T15:23:46.883Z,10.60
2019-03-12T15:26:19.441Z,10.40
2019-03-12T15:28:52.385Z,10.30
2019-03-12T15:31:24.889Z,10.30
2019-03-12T15:33:57.353Z,10.10
2019-03-12T15:36:29.988Z,10.00
2019-03-12T15:39:02.682Z,9.90
2019-03-12T15:41:35.601Z,9.80
2019-03-12T15:44:26.556Z,9.90
2019-03-12T15:46:58.945Z,9.80
2019-03-12T15:49:31.284Z,9.70
2019-03-12T15:52:04.176Z,9.60
2019-03-12T15:54:36.815Z,9.60
2019-03-12T15:57:09.431Z,9.60
2019-03-12T15:59:42.157Z,9.60
2019-03-12T16:02:14.571Z,9.50
2019-03-12T16:04:47.128Z,9.50
2019-03-12T16:07:19.626Z,9.50
2019-03-12T16:09:52.203Z,9.40
2019-03-12T16:12:24.858Z,9.40
2019-03-12T16:14:57.393Z,9.50
2019-03-12T16:17:29.999Z,9.40
2019-03-12T16:20:02.326Z,9.40
2019-03-12T16:22:34.827Z,9.30
2019-03-12T16:25:08.043Z,9.30
2019-03-12T16:27:40.487Z,9.30
2019-03-12T16:30:13.388Z,9.30
2019-03-12T16:32:45.884Z,9.20
2019-03-12T16:35:18.308Z,9.20
2019-03-12T16:37:50.739Z,9.20
2019-03-12T16:40:23.048Z,9.10
2019-03-12T16:42:55.347Z,9.00
2019-03-12T16:45:27.726Z,8.90
2019-03-12T16:48:00.875Z,8.80
2019-03-12T16:50:33.394Z,8.80
2019-03-12T16:53:05.971Z,8.70
2019-03-12T16:55:38.355Z,8.70
2019-03-12T16:58:10.772Z,8.70
2019-03-12T17:00:43.178Z,8.70
2019-03-12T17:03:15.560Z,8.50
2019-03-12T17:05:48.242Z,8.40
2019-03-12T17:08:20.876Z,8.50
2019-03-12T17:10:59.769Z,8.50
2019-03-12T17:13:27.193Z,8.50
2019-03-12T17:15:59.620Z,8.60
2019-03-12T17:18:32.294Z,8.50
2019-03-12T17:21:04.969Z,8.40
2019-03-12T17:23:48.459Z,8.60
2019-03-12T17:26:20.788Z,8.50
2019-03-12T17:28:53.136Z,8.30
2019-03-12T17:31:25.530Z,8.10
2019-03-12T17:33:57.804Z,7.90
2019-03-12T17:36:30.640Z,7.90
2019-03-12T17:39:04.945Z,7.80
2019-03-12T17:41:37.571Z,7.70
2019-03-12T17:44:10.009Z,7.60
2019-03-12T17:46:42.303Z,7.60
2019-03-12T17:49:14.755Z,7.60
2019-03-12T17:51:47.305Z,7.50
2019-03-12T17:54:19.969Z,7.60
2019-03-12T17:56:53.140Z,7.60
2019-03-12T17:59:25.376Z,7.60
2019-03-12T18:01:58.641Z,7.50
2019-03-12T18:04:31.215Z,7.70
2019-03-12T18:07:04.238Z,7.70
2019-03-12T18:09:36.871Z,7.60
2019-03-12T18:12:09.540Z,7.60
2019-03-12T18:14:41.937Z,7.50
2019-03-12T18:17:14.432Z,7.30
2019-03-12T18:19:46.767Z,7.20
2019-03-12T18:22:19.265Z,7.20
2019-03-12T18:24:51.365Z,7.20
2019-03-12T18:27:24.037Z,7.20
2019-03-12T18:29:56.563Z,6.90
2019-03-12T18:32:32.834Z,6.70
2019-03-12T18:35:07.279Z,6.50
2019-03-12T18:37:39.891Z,6.50
2019-03-12T18:40:16.331Z,6.50
2019-03-12T18:42:49.036Z,6.50
2019-03-12T18:45:22.926Z,6.40
2019-03-12T18:47:55.520Z,6.40
2019-03-12T18:50:28.096Z,6.40
2019-03-12T18:53:00.654Z,6.50
2019-03-12T18:56:03.416Z,6.50
2019-03-12T18:58:54.576Z,6.50
2019-03-12T19:01:27.122Z,6.40
2019-03-12T19:03:59.754Z,6.20
2019-03-12T19:06:32.356Z,6.10
2019-03-12T19:09:06.060Z,6.00
2019-03-12T19:11:38.580Z,6.00
2019-03-12T19:14:11.191Z,6.10
2019-03-12T19:16:43.825Z,5.90
2019-03-12T19:19:16.525Z,5.80
2019-03-12T19:21:49.546Z,5.70
2019-03-12T19:24:22.329Z,5.60
2019-03-12T19:26:55.892Z,5.40
2019-03-12T19:29:28.340Z,5.60
2019-03-12T19:32:18.478Z,5.80
2019-03-12T19:34:52.243Z,5.80
2019-03-12T19:37:25.054Z,5.70
2019-03-12T19:39:57.878Z,5.70
2019-03-12T19:42:30.514Z,5.60
2019-03-12T19:45:03.731Z,5.50
2019-03-12T19:47:36.265Z,5.40
2019-03-12T19:50:12.058Z,5.40
2019-03-12T19:52:46.193Z,5.40
2019-03-12T19:55:21.583Z,5.40
2019-03-12T19:57:54.955Z,5.50
2019-03-12T20:00:28.558Z,5.50
2019-03-12T20:03:11.732Z,5.40
2019-03-12T20:05:35.381Z,5.30
2019-03-12T20:08:08.399Z,5.20
2019-03-12T20:11:34.806Z,5.20
2019-03-12T20:15:14.131Z,5.00
2019-03-12T20:19:10.781Z,5.00
2019-03-12T20:22:37.702Z,5.10
2019-03-12T20:26:39.429Z,5.10
2019-03-12T20:30:37.773Z,4.90
2019-03-12T20:34:55.194Z,4.80
2019-03-12T20:38:27.455Z,4.80
2019-03-12T20:42:00.344Z,4.80
2019-03-12T20:45:43.593Z,4.70
2019-03-12T20:49:26.071Z,4.80
2019-03-12T20:52:52.319Z,4.70
2019-03-12T20:56:31.154Z,4.70
2019-03-12T21:00:23.302Z,4.70
2019-03-12T21:03:49.167Z,4.50
2019-03-12T21:07:30.769Z,4.70
2019-03-12T21:11:07.165Z,5.30
2019-03-12T21:14:20.085Z,4.80
2019-03-12T21:17:37.844Z,4.60
2019-03-12T21:21:39.026Z,4.50
2019-03-12T21:25:35.421Z,4.40
2019-03-12T21:29:00.706Z,4.30
2019-03-12T21:31:34.284Z,4.60
2019-03-12T21:34:14.128Z,4.90
2019-03-12T21:36:47.861Z,4.50
2019-03-12T21:39:20.906Z,4.30
2019-03-12T21:41:53.598Z,4.10
2019-03-12T21:44:26.487Z,4.10
2019-03-12T21:46:59.875Z,4.10
2019-03-12T21:49:32.796Z,4.10
2019-03-12T21:52:06.075Z,3.90
2019-03-12T21:54:39.207Z,3.90
2019-03-12T21:57:11.641Z,3.80
2019-03-12T21:59:44.454Z,3.80
2019-03-12T22:02:17.042Z,3.70
2019-03-12T22:04:49.309Z,3.70
2019-03-12T22:07:21.849Z,3.70
2019-03-12T22:09:55.421Z,3.70
2019-03-12T22:12:29.215Z,3.70
2019-03-12T22:15:01.761Z,3.90
2019-03-12T22:17:34.583Z,3.90
2019-03-12T22:20:08.761Z,4.00
2019-03-12T22:22:59.958Z,4.00
2019-03-12T22:25:32.800Z,4.00
2019-03-12T22:28:05.287Z,4.10
2019-03-12T22:30:38.224Z,4.40
2019-03-12T22:33:11.243Z,4.60
2019-03-12T22:35:44.045Z,4.90
2019-03-12T22:38:16.657Z,5.20
2019-03-12T22:40:49.460Z,5.10
2019-03-12T22:43:21.859Z,4.90
2019-03-12T22:45:54.448Z,4.70
2019-03-12T22:48:26.732Z,4.50
2019-03-12T22:50:59.274Z,4.40
2019-03-12T22:53:33.671Z,4.20
2019-03-12T22:56:06.037Z,4.20
2019-03-12T22:58:38.731Z,4.10
2019-03-12T23:01:11.296Z,3.90
2019-03-12T23:03:43.694Z,3.80
2019-03-12T23:06:16.271Z,3.90
2019-03-12T23:08:48.630Z,3.90
2019-03-12T23:11:21.335Z,4.00
2019-03-12T23:13:53.767Z,4.00
2019-03-12T23:16:26.161Z,4.00
2019-03-12T23:18:59.592Z,4.00
2019-03-12T23:21:32.028Z,4.00
2019-03-12T23:24:04.262Z,4.00
2019-03-12T23:26:36.845Z,4.00
2019-03-12T23:29:09.172Z,4.00
2019-03-12T23:31:41.484Z,3.90
2019-03-12T23:34:14.463Z,3.70
2019-03-12T23:36:46.906Z,3.50
2019-03-12T23:39:19.360Z,3.40
2019-03-12T23:41:51.824Z,3.40
2019-03-12T23:44:24.650Z,3.60
2019-03-12T23:46:57.135Z,3.40
2019-03-12T23:49:29.754Z,3.40
2019-03-12T23:52:02.832Z,3.40
2019-03-12T23:54:35.346Z,3.50
2019-03-12T23:57:07.940Z,3.40
2019-03-12T23:59:40.916Z,3.40
